Terminal Aerodrome Forecast
Issued by NWS Tuscon, AZ

Home | Current Version | Previous Version | Text Only | Print | Product List | Glossary On
Versions: 1 2 3 4 5 6 7 8 9 10 11 12 13
000
FTUS45 KTWC 281123
TAFTUS
TAF
KTUS 281123Z 2812/2912 15007KT P6SM SKC
     FM282000 30010G18KT P6SM SKC
     FM290300 32007KT P6SM SKC
     FM290900 14006KT P6SM SCT250=

USA.gov is the U.S. government's official web portal to all federal, state and local government web resources and services.